createdAt,value
2022-10-02T00:00:14.089Z,99709.55
2022-10-02T00:02:59.605Z,99723.98
2022-10-02T00:05:54.567Z,99720.38
2022-10-02T00:08:35.031Z,99720.28
2022-10-02T00:11:21.527Z,99714.39
2022-10-02T00:14:04.582Z,99710.81
2022-10-02T00:16:43.293Z,99712.03
2022-10-02T00:19:19.815Z,99706.66
2022-10-02T00:22:30.315Z,99708.36
2022-10-02T00:25:32.126Z,99704.36
2022-10-02T00:28:30.659Z,99705.17
2022-10-02T00:31:41.865Z,99697.26
2022-10-02T00:34:21.021Z,99690.22
2022-10-02T00:37:21.047Z,99688.90
2022-10-02T00:40:32.635Z,99688.39
2022-10-02T00:43:34.558Z,99673.34
2022-10-02T00:46:43.447Z,99675.03
2022-10-02T00:49:43.230Z,99671.45
2022-10-02T00:53:01.651Z,99654.17
2022-10-02T00:55:57.775Z,99656.75
2022-10-02T00:58:47.411Z,99649.23
2022-10-02T01:01:46.024Z,99646.50
2022-10-02T01:04:37.256Z,99646.40
2022-10-02T01:07:12.639Z,99648.94
2022-10-02T01:09:45.500Z,99646.70
2022-10-02T01:12:18.702Z,99644.91
2022-10-02T01:14:51.986Z,99644.41
2022-10-02T01:17:32.514Z,99640.41
2022-10-02T01:20:08.277Z,99641.77
2022-10-02T01:22:51.839Z,99643.12
2022-10-02T01:25:25.210Z,99639.20
2022-10-02T01:27:58.114Z,99642.34
2022-10-02T01:30:32.524Z,99636.19
2022-10-02T01:33:05.872Z,99628.34
2022-10-02T01:35:40.471Z,99627.93
2022-10-02T01:38:16.850Z,99630.57
2022-10-02T01:40:49.851Z,99630.98
2022-10-02T01:43:29.828Z,99636.28
2022-10-02T01:46:12.984Z,99644.70
2022-10-02T01:48:48.712Z,99641.22
2022-10-02T01:51:32.216Z,99642.10
2022-10-02T01:54:43.158Z,99640.34
2022-10-02T01:57:46.576Z,99637.73
2022-10-02T02:00:26.033Z,99642.61
2022-10-02T02:03:39.851Z,99636.92
2022-10-02T02:06:50.014Z,99641.86
2022-10-02T02:09:44.493Z,99640.26
2022-10-02T02:12:43.510Z,99638.69
2022-10-02T02:15:32.961Z,99639.70
2022-10-02T02:18:30.675Z,99639.38
2022-10-02T02:21:14.147Z,99636.39
2022-10-02T02:23:47.503Z,99636.92
2022-10-02T02:26:21.675Z,99638.73
2022-10-02T02:28:58.706Z,99640.17
2022-10-02T02:31:39.148Z,99641.59
2022-10-02T02:34:18.694Z,99640.82
2022-10-02T02:36:56.188Z,99643.55
2022-10-02T02:39:47.954Z,99633.92
2022-10-02T02:42:26.311Z,99633.53
2022-10-02T02:45:16.776Z,99630.56
2022-10-02T02:47:53.283Z,99623.12
2022-10-02T02:50:36.298Z,99622.34
2022-10-02T02:53:28.144Z,99616.19
2022-10-02T02:56:03.123Z,99608.31
2022-10-02T02:59:01.107Z,99601.33
2022-10-02T03:01:34.392Z,99592.54
2022-10-02T03:04:08.283Z,99576.71
2022-10-02T03:06:44.335Z,99578.08
2022-10-02T03:09:21.842Z,99577.70
2022-10-02T03:12:30.819Z,99571.14
2022-10-02T03:15:29.345Z,99557.91
2022-10-02T03:18:22.284Z,99559.30
2022-10-02T03:21:05.389Z,99548.76
2022-10-02T03:24:00.707Z,99539.09
2022-10-02T03:26:41.492Z,99543.08
2022-10-02T03:29:36.868Z,99545.31
2022-10-02T03:32:10.945Z,99540.48
2022-10-02T03:34:44.029Z,99536.55
2022-10-02T03:37:17.046Z,99530.84
2022-10-02T03:39:52.450Z,99531.30
2022-10-02T03:42:29.841Z,99536.19
2022-10-02T03:45:02.897Z,99526.95
2022-10-02T03:47:35.983Z,99520.78
2022-10-02T03:50:10.146Z,99520.39
2022-10-02T03:52:45.320Z,99521.31
2022-10-02T03:55:38.244Z,99508.58
2022-10-02T03:58:20.709Z,99504.63
2022-10-02T04:01:14.614Z,99503.35
2022-10-02T04:04:01.177Z,99511.30
2022-10-02T04:06:39.206Z,99504.77
2022-10-02T04:09:35.383Z,99500.81
2022-10-02T04:12:18.224Z,99499.52
2022-10-02T04:15:26.682Z,99500.03
2022-10-02T04:18:18.988Z,99501.84
2022-10-02T04:21:01.454Z,99500.09
2022-10-02T04:23:38.896Z,99494.83
2022-10-02T04:26:24.674Z,99492.22
2022-10-02T04:29:04.865Z,99486.51
2022-10-02T04:31:37.993Z,99488.74
2022-10-02T04:34:14.338Z,99473.37
2022-10-02T04:37:12.365Z,99472.08
2022-10-02T04:40:12.937Z,99464.17
2022-10-02T04:43:05.547Z,99464.66
2022-10-02T04:46:10.927Z,99457.61
2022-10-02T04:49:08.590Z,99452.35
2022-10-02T04:52:04.061Z,99454.58
2022-10-02T04:54:56.393Z,99445.83
2022-10-02T04:58:00.903Z,99442.81
2022-10-02T05:01:13.234Z,99443.30
2022-10-02T05:04:12.965Z,99430.58
2022-10-02T05:07:02.725Z,99435.48
2022-10-02T05:09:58.624Z,99428.45
2022-10-02T05:12:53.936Z,99431.57
2022-10-02T05:15:48.470Z,99420.98
2022-10-02T05:18:41.180Z,99419.72
2022-10-02T05:21:24.203Z,99415.33
2022-10-02T05:24:19.511Z,99413.17
2022-10-02T05:27:22.402Z,99409.63
2022-10-02T05:30:20.388Z,99405.67
2022-10-02T05:33:28.332Z,99409.66
2022-10-02T05:36:12.238Z,99407.01
2022-10-02T05:39:02.985Z,99408.35
2022-10-02T05:41:55.199Z,99405.72
2022-10-02T05:44:53.960Z,99405.75
2022-10-02T05:47:42.777Z,99404.92
2022-10-02T05:50:29.643Z,99401.84
2022-10-02T05:53:12.762Z,99401.88
2022-10-02T05:56:22.622Z,99390.85
2022-10-02T05:59:03.822Z,99389.55
2022-10-02T06:01:41.204Z,99401.53
2022-10-02T06:04:18.321Z,99393.16
2022-10-02T06:06:57.575Z,99385.70
2022-10-02T06:09:44.358Z,99376.89
2022-10-02T06:12:34.215Z,99383.59
2022-10-02T06:15:42.247Z,99377.86
2022-10-02T06:18:19.640Z,99364.61
2022-10-02T06:20:59.650Z,99369.94
2022-10-02T06:23:45.378Z,99365.98
2022-10-02T06:26:22.878Z,99341.64
2022-10-02T06:29:26.279Z,99328.36
2022-10-02T06:32:35.362Z,99325.25
2022-10-02T06:35:16.879Z,99323.05
2022-10-02T06:38:24.791Z,99321.28
2022-10-02T06:41:25.256Z,99315.95
2022-10-02T06:44:08.333Z,99310.59
2022-10-02T06:47:01.319Z,99306.59
2022-10-02T06:50:19.637Z,99303.49
2022-10-02T06:53:15.743Z,99302.56
2022-10-02T06:56:02.119Z,99305.22
2022-10-02T06:59:03.734Z,99301.70
2022-10-02T07:01:46.772Z,99302.56
2022-10-02T07:05:01.536Z,99305.20
2022-10-02T07:07:58.192Z,99299.40
2022-10-02T07:11:01.184Z,99286.53
2022-10-02T07:14:12.291Z,99287.84
2022-10-02T07:17:22.206Z,99286.92
2022-10-02T07:20:16.251Z,99265.21
2022-10-02T07:23:20.235Z,99269.16
2022-10-02T07:26:12.958Z,99249.66
2022-10-02T07:29:05.195Z,99250.12
2022-10-02T07:31:54.664Z,99239.03
2022-10-02T07:34:41.264Z,99225.27
2022-10-02T07:37:29.930Z,99216.40
2022-10-02T07:40:36.251Z,99215.47
2022-10-02T07:43:25.424Z,99211.36
2022-10-02T07:46:11.739Z,99213.92
2022-10-02T07:49:16.827Z,99207.20
2022-10-02T07:52:00.055Z,99199.62
2022-10-02T07:54:59.364Z,99184.92
2022-10-02T07:57:43.298Z,99177.28
2022-10-02T08:00:19.765Z,99163.43
2022-10-02T08:03:03.347Z,99165.59
2022-10-02T08:05:44.989Z,99170.45
2022-10-02T08:08:50.946Z,99165.47
2022-10-02T08:11:41.090Z,99167.23
2022-10-02T08:14:39.522Z,99159.70
2022-10-02T08:17:37.793Z,99161.91
2022-10-02T08:20:39.443Z,99145.07
2022-10-02T08:23:31.947Z,99123.83
2022-10-02T08:26:12.889Z,99123.83
2022-10-02T08:28:58.174Z,99107.41
2022-10-02T08:31:31.092Z,99107.41
2022-10-02T08:34:19.125Z,99098.11
2022-10-02T08:37:21.566Z,99098.11
2022-10-02T08:40:35.227Z,99084.85
2022-10-02T08:43:41.387Z,99083.58
2022-10-02T08:46:34.313Z,99074.39
2022-10-02T08:49:23.777Z,99070.13
2022-10-02T08:52:07.413Z,99070.67
2022-10-02T08:55:00.653Z,99066.30
2022-10-02T08:57:57.851Z,99063.70
2022-10-02T09:00:38.177Z,99059.78
2022-10-02T09:03:42.949Z,99052.74
2022-10-02T09:06:26.287Z,99042.15
2022-10-02T09:09:24.442Z,99030.23
2022-10-02T09:12:04.775Z,99030.27
2022-10-02T09:14:50.350Z,99025.42
2022-10-02T09:17:50.677Z,99005.95
2022-10-02T09:20:53.803Z,99005.98
2022-10-02T09:23:57.246Z,99005.58
2022-10-02T09:26:53.585Z,99009.16
2022-10-02T09:30:05.893Z,99015.80
2022-10-02T09:33:10.781Z,99019.34
2022-10-02T09:36:17.231Z,99007.76
2022-10-02T09:39:33.847Z,99000.23
2022-10-02T09:42:40.140Z,98991.34
2022-10-02T09:45:45.296Z,98972.30
2022-10-02T09:48:44.660Z,98974.94
2022-10-02T09:51:40.412Z,98968.27
2022-10-02T09:54:46.634Z,98978.42
2022-10-02T09:57:52.597Z,98985.48
2022-10-02T10:00:46.971Z,98982.77
2022-10-02T10:04:02.147Z,98971.14
2022-10-02T10:07:07.409Z,98975.95
2022-10-02T10:10:24.545Z,98978.16
2022-10-02T10:13:12.677Z,98979.87
2022-10-02T10:16:24.286Z,98982.94
2022-10-02T10:19:04.672Z,98993.55
2022-10-02T10:22:09.005Z,98993.08
2022-10-02T10:25:30.491Z,98991.30
2022-10-02T10:28:43.141Z,98988.66
2022-10-02T10:31:44.461Z,98989.58
2022-10-02T10:34:58.670Z,98990.08
2022-10-02T10:38:30.216Z,98972.41
2022-10-02T10:41:36.667Z,98972.41
2022-10-02T10:44:44.853Z,98965.83
2022-10-02T10:47:39.798Z,98956.14
2022-10-02T10:50:24.626Z,98945.52
2022-10-02T10:53:24.551Z,98941.08
2022-10-02T10:56:18.895Z,98939.73
2022-10-02T10:59:25.548Z,98941.50
2022-10-02T11:02:43.492Z,98942.34
2022-10-02T11:05:43.660Z,98937.47
2022-10-02T11:08:45.701Z,98934.86
2022-10-02T11:11:58.145Z,98914.13
2022-10-02T11:14:44.522Z,98914.13
2022-10-02T11:17:57.185Z,98899.61
2022-10-02T11:20:58.926Z,98896.15
2022-10-02T11:24:13.914Z,98896.15
2022-10-02T11:27:37.668Z,98888.22
2022-10-02T11:30:41.672Z,98885.63
2022-10-02T11:34:09.685Z,98872.39
2022-10-02T11:37:13.668Z,98877.26
2022-10-02T11:40:22.359Z,98860.41
2022-10-02T11:43:39.466Z,98838.28
2022-10-02T11:46:51.651Z,98829.01
2022-10-02T11:50:08.734Z,98825.92
2022-10-02T11:53:24.499Z,98817.03
2022-10-02T11:56:24.505Z,98828.94
2022-10-02T11:59:43.201Z,98821.92
2022-10-02T12:02:44.696Z,98811.78
2022-10-02T12:05:28.154Z,98808.77
2022-10-02T12:08:35.557Z,98793.77
2022-10-02T12:11:36.087Z,98797.78
2022-10-02T12:14:25.489Z,98783.64
2022-10-02T12:17:28.521Z,98764.64
2022-10-02T12:20:48.847Z,98763.33
2022-10-02T12:24:03.973Z,98752.78
2022-10-02T12:27:18.481Z,98743.52
2022-10-02T12:30:09.592Z,98738.26
2022-10-02T12:33:06.490Z,98722.80
2022-10-02T12:36:10.767Z,98716.66
2022-10-02T12:39:07.712Z,98711.38
2022-10-02T12:42:25.848Z,98707.47
2022-10-02T12:45:44.442Z,98695.17
2022-10-02T12:48:34.372Z,98666.50
2022-10-02T12:51:32.771Z,98662.56
2022-10-02T12:54:45.192Z,98669.63
2022-10-02T12:57:52.957Z,98662.99
2022-10-02T13:00:53.311Z,98653.30
2022-10-02T13:04:02.956Z,98640.91
2022-10-02T13:07:21.169Z,98636.91
2022-10-02T13:10:21.847Z,98655.48
2022-10-02T13:13:31.001Z,98642.66
2022-10-02T13:16:36.905Z,98632.02
2022-10-02T13:19:49.962Z,98628.47
2022-10-02T13:22:31.695Z,98628.45
2022-10-02T13:25:24.373Z,98616.10
2022-10-02T13:28:36.704Z,98607.20
2022-10-02T13:31:19.421Z,98608.52
2022-10-02T13:34:22.869Z,98602.70
2022-10-02T13:37:15.956Z,98603.61
2022-10-02T13:40:16.220Z,98602.69
2022-10-02T13:43:19.537Z,98601.86
2022-10-02T13:46:23.129Z,98594.38
2022-10-02T13:49:22.934Z,98591.30
2022-10-02T13:52:32.163Z,98592.25
2022-10-02T13:55:32.286Z,98583.86
2022-10-02T13:58:41.366Z,98574.59
2022-10-02T14:01:45.198Z,98571.94
2022-10-02T14:04:25.285Z,98560.87
2022-10-02T14:07:08.350Z,98551.16
2022-10-02T14:09:58.423Z,98548.07
2022-10-02T14:12:38.697Z,98535.28
2022-10-02T14:15:34.646Z,98526.42
2022-10-02T14:18:32.181Z,98534.88
2022-10-02T14:21:31.398Z,98526.95
2022-10-02T14:24:33.329Z,98520.33
2022-10-02T14:27:42.843Z,98510.64
2022-10-02T14:30:31.473Z,98518.60
2022-10-02T14:33:49.842Z,98534.52
2022-10-02T14:36:38.853Z,98528.73
2022-10-02T14:39:40.726Z,98525.59
2022-10-02T14:42:39.641Z,98524.24
2022-10-02T14:46:06.422Z,98532.66
2022-10-02T14:49:08.425Z,98527.83
2022-10-02T14:52:19.685Z,98519.89
2022-10-02T14:55:19.200Z,98519.45
2022-10-02T14:58:02.507Z,98513.72
2022-10-02T15:00:52.410Z,98515.52
2022-10-02T15:04:15.104Z,98511.16
2022-10-02T15:07:21.484Z,98507.23
2022-10-02T15:10:20.039Z,98503.74
2022-10-02T15:13:03.033Z,98504.22
2022-10-02T15:16:21.444Z,98495.84
2022-10-02T15:19:41.161Z,98490.99
2022-10-02T15:22:30.346Z,98479.53
2022-10-02T15:25:19.007Z,98479.98
2022-10-02T15:28:18.014Z,98477.77
2022-10-02T15:30:38.986Z,98481.28
2022-10-02T15:33:37.203Z,98484.39
2022-10-02T15:37:02.093Z,98468.92
2022-10-02T15:39:55.907Z,98473.78
2022-10-02T15:42:58.534Z,98468.09
2022-10-02T15:45:51.548Z,98467.73
2022-10-02T15:48:52.546Z,98470.42
2022-10-02T15:51:32.373Z,98474.84
2022-10-02T15:54:28.988Z,98470.91
2022-10-02T15:57:34.998Z,98473.59
2022-10-02T16:00:18.281Z,98470.08
2022-10-02T16:03:12.893Z,98467.47
2022-10-02T16:06:06.902Z,98464.89
2022-10-02T16:08:53.336Z,98462.68
2022-10-02T16:11:54.500Z,98450.80
2022-10-02T16:14:54.722Z,98449.95
2022-10-02T16:17:59.563Z,98427.46
2022-10-02T16:20:58.557Z,98446.92
2022-10-02T16:24:15.792Z,98433.77
2022-10-02T16:27:26.419Z,98439.53
2022-10-02T16:30:20.516Z,98432.09
2022-10-02T16:33:27.211Z,98447.13
2022-10-02T16:36:08.621Z,98454.65
2022-10-02T16:38:55.301Z,98457.31
2022-10-02T16:41:44.671Z,98440.13
2022-10-02T16:44:37.372Z,98428.23
2022-10-02T16:47:35.712Z,98425.62
2022-10-02T16:50:27.559Z,98416.41
2022-10-02T16:53:25.805Z,98404.98
2022-10-02T16:56:18.189Z,98403.26
2022-10-02T16:59:16.680Z,98413.42
2022-10-02T17:02:28.316Z,98407.69
2022-10-02T17:05:32.045Z,98392.73
2022-10-02T17:08:29.833Z,98383.53
2022-10-02T17:11:24.428Z,98376.08
2022-10-02T17:14:41.447Z,98376.98
2022-10-02T17:17:49.813Z,98378.78
2022-10-02T17:20:28.008Z,98395.09
2022-10-02T17:23:37.246Z,98393.84
2022-10-02T17:26:33.891Z,98393.39
2022-10-02T17:29:19.989Z,98382.37
2022-10-02T17:31:58.879Z,98389.94
2022-10-02T17:34:48.213Z,98389.08
2022-10-02T17:37:58.376Z,98382.06
2022-10-02T17:41:12.558Z,98378.57
2022-10-02T17:44:25.690Z,98383.44
2022-10-02T17:47:22.885Z,98374.24
2022-10-02T17:50:29.211Z,98372.95
2022-10-02T17:54:16.423Z,98377.84
2022-10-02T17:57:04.743Z,98375.22
2022-10-02T17:59:54.123Z,98373.47
2022-10-02T18:03:03.723Z,98374.83
2022-10-02T18:05:50.467Z,98371.75
2022-10-02T18:08:42.324Z,98365.60
2022-10-02T18:11:35.250Z,98352.86
2022-10-02T18:14:57.628Z,98363.45
2022-10-02T18:17:57.038Z,98350.29
2022-10-02T18:20:55.795Z,98354.82
2022-10-02T18:23:50.106Z,98346.48
2022-10-02T18:26:59.396Z,98333.75
2022-10-02T18:30:02.651Z,98339.48
2022-10-02T18:33:05.596Z,98336.84
2022-10-02T18:35:54.754Z,98360.61
2022-10-02T18:39:02.604Z,98365.45
2022-10-02T18:42:12.836Z,98372.49
2022-10-02T18:45:31.930Z,98395.34
2022-10-02T18:48:22.357Z,98393.13
2022-10-02T18:51:39.154Z,98402.80
2022-10-02T18:54:47.611Z,98399.73
2022-10-02T18:57:51.476Z,98389.16
2022-10-02T19:00:28.476Z,98382.09
2022-10-02T19:03:18.026Z,98400.13
2022-10-02T19:06:09.335Z,98380.32
2022-10-02T19:09:14.597Z,98370.20
2022-10-02T19:11:57.850Z,98387.77
2022-10-02T19:14:41.581Z,98396.97
2022-10-02T19:17:18.712Z,98406.16
2022-10-02T19:19:53.637Z,98394.23
2022-10-02T19:22:33.294Z,98395.09
2022-10-02T19:25:16.454Z,98385.45
2022-10-02T19:27:57.426Z,98386.77
2022-10-02T19:30:33.509Z,98394.67
2022-10-02T19:33:12.614Z,98400.78
2022-10-02T19:35:46.488Z,98414.38
2022-10-02T19:38:38.731Z,98418.73
2022-10-02T19:41:14.676Z,98427.03
2022-10-02T19:44:05.348Z,98430.12
2022-10-02T19:46:45.887Z,98438.02
2022-10-02T19:49:31.240Z,98441.98
2022-10-02T19:52:04.484Z,98438.03
2022-10-02T19:54:40.089Z,98440.63
2022-10-02T19:57:19.486Z,98445.86
2022-10-02T19:59:54.551Z,98440.15
2022-10-02T20:02:41.534Z,98431.31
2022-10-02T20:05:27.664Z,98426.91
2022-10-02T20:08:11.260Z,98431.27
2022-10-02T20:11:14.231Z,98422.44
2022-10-02T20:13:52.937Z,98425.51
2022-10-02T20:16:46.848Z,98416.28
2022-10-02T20:19:35.140Z,98417.14
2022-10-02T20:22:17.646Z,98420.23
2022-10-02T20:25:31.155Z,98423.32
2022-10-02T20:28:26.086Z,98425.95
2022-10-02T20:31:15.546Z,98428.14
2022-10-02T20:33:54.744Z,98431.64
2022-10-02T20:36:36.003Z,98426.83
2022-10-02T20:39:17.559Z,98427.30
2022-10-02T20:42:10.286Z,98421.56
2022-10-02T20:44:43.741Z,98414.97
2022-10-02T20:48:03.418Z,98426.34
2022-10-02T20:50:53.271Z,98435.98
2022-10-02T20:53:39.757Z,98447.31
2022-10-02T20:56:51.603Z,98449.41
2022-10-02T20:59:42.881Z,98446.28
2022-10-02T21:02:55.347Z,98447.84
2022-10-02T21:05:45.424Z,98460.91
2022-10-02T21:08:47.375Z,98471.25
2022-10-02T21:12:03.438Z,98479.48
2022-10-02T21:15:07.331Z,98481.52
2022-10-02T21:17:57.930Z,98484.87
2022-10-02T21:21:10.800Z,98489.97
2022-10-02T21:24:27.961Z,98485.88
2022-10-02T21:27:22.747Z,98492.75
2022-10-02T21:30:14.900Z,98493.98
2022-10-02T21:33:15.837Z,98508.81
2022-10-02T21:35:57.529Z,98510.06
2022-10-02T21:39:14.522Z,98516.55
2022-10-02T21:42:09.098Z,98513.88
2022-10-02T21:45:09.171Z,98516.97
2022-10-02T21:48:13.859Z,98530.07
2022-10-02T21:51:38.455Z,98530.45
2022-10-02T21:54:49.652Z,98527.42
2022-10-02T21:57:58.812Z,98526.06
2022-10-02T22:00:32.663Z,98534.70
2022-10-02T22:03:15.716Z,98526.37
2022-10-02T22:05:56.410Z,98529.77
2022-10-02T22:08:42.837Z,98537.13
2022-10-02T22:12:05.855Z,98541.91
2022-10-02T22:15:09.217Z,98540.03
2022-10-02T22:18:05.126Z,98531.64
2022-10-02T22:21:08.865Z,98531.09
2022-10-02T22:24:03.645Z,98525.82
2022-10-02T22:27:05.934Z,98524.54
2022-10-02T22:29:54.278Z,98522.77
2022-10-02T22:33:13.534Z,98521.80
2022-10-02T22:36:11.786Z,98520.41
2022-10-02T22:38:58.562Z,98532.16
2022-10-02T22:41:42.445Z,98550.03
2022-10-02T22:44:37.663Z,98553.41
2022-10-02T22:47:18.589Z,98564.22
2022-10-02T22:50:23.214Z,98572.81
2022-10-02T22:53:18.407Z,98571.88
2022-10-02T22:55:57.505Z,98576.59
2022-10-02T22:58:37.812Z,98577.44
2022-10-02T23:01:25.689Z,98580.37
2022-10-02T23:04:12.002Z,98577.19
2022-10-02T23:06:55.625Z,98585.86
2022-10-02T23:09:51.803Z,98593.99
2022-10-02T23:12:39.823Z,98601.76
2022-10-02T23:15:36.121Z,98609.11
2022-10-02T23:18:41.520Z,98609.48
2022-10-02T23:21:42.045Z,98615.09
2022-10-02T23:24:36.269Z,98617.64
2022-10-02T23:27:13.886Z,98624.59
2022-10-02T23:30:03.661Z,98636.34
2022-10-02T23:32:48.538Z,98638.97
2022-10-02T23:35:37.987Z,98639.88
2022-10-02T23:38:48.602Z,98637.25
2022-10-02T23:41:39.519Z,98635.98
2022-10-02T23:44:29.527Z,98651.23
2022-10-02T23:47:20.682Z,98656.87
2022-10-02T23:49:57.918Z,98656.36
2022-10-02T23:52:50.624Z,98666.00
2022-10-02T23:55:54.844Z,98663.82
2022-10-02T23:58:54.758Z,98665.13
